Time;durP1;ratioP1;P1;durP2;ratioP2;P2;SDS_P1;SDS_P2;PMS_P1;PMS_P2;Temp;Humidity;BMP_temperature;BMP_pressure;BME280_temperature;BME280_humidity;BME280_pressure;Samples;Min_cycle;Max_cycle;Signal;HPM_P1;HPM_P2
2022/12/16 00:01:23;;;;;;;93.83;30.97;;;;;;;-4.94;100.00;99674.31;4191971;28;20525;-69
2022/12/16 00:03:51;;;;;;;90.13;30.40;;;;;;;-4.97;100.00;99678.78;4178287;28;20357;-67
2022/12/16 00:06:21;;;;;;;85.57;30.33;;;;;;;-5.00;100.00;99676.34;4183592;28;20284;-68
2022/12/16 00:08:48;;;;;;;90.13;31.83;;;;;;;-5.03;100.00;99669.53;4201228;28;20226;-68
2022/12/16 00:11:14;;;;;;;86.20;31.60;;;;;;;-5.00;100.00;99664.19;4183981;28;20359;-65
2022/12/16 00:13:41;;;;;;;89.43;31.93;;;;;;;-5.02;100.00;99670.38;4195469;28;21581;-66
2022/12/16 00:16:12;;;;;;;94.90;32.63;;;;;;;-5.05;100.00;99673.09;4188444;28;20375;-66
2022/12/16 00:18:40;;;;;;;91.93;31.73;;;;;;;-5.02;100.00;99678.16;4183292;28;21513;-68
2022/12/16 00:21:07;;;;;;;92.17;32.77;;;;;;;-4.98;100.00;99682.31;4190186;28;20356;-67
2022/12/16 00:23:34;;;;;;;93.00;33.17;;;;;;;-5.09;100.00;99686.19;4177242;28;20742;-68
2022/12/16 00:26:02;;;;;;;95.87;33.03;;;;;;;-4.99;100.00;99681.44;4150620;28;21421;-70
2022/12/16 00:28:29;;;;;;;94.73;32.47;;;;;;;-5.13;100.00;99676.88;4167139;28;21159;-66
2022/12/16 00:30:56;;;;;;;94.30;33.40;;;;;;;-5.15;100.00;99670.88;4182708;28;20245;-70
2022/12/16 00:33:25;;;;;;;95.87;33.67;;;;;;;-5.15;100.00;99675.22;4194244;28;25664;-68
2022/12/16 00:35:52;;;;;;;85.43;31.67;;;;;;;-5.19;100.00;99673.69;4179871;28;20243;-67
2022/12/16 00:38:21;;;;;;;83.80;29.33;;;;;;;-5.21;100.00;99681.50;4161917;28;20234;-67
2022/12/16 00:40:47;;;;;;;89.10;32.33;;;;;;;-5.23;100.00;99679.91;4191580;28;20245;-68
2022/12/16 00:43:14;;;;;;;95.00;33.17;;;;;;;-5.24;100.00;99679.06;4188785;28;22956;-65
2022/12/16 00:45:40;;;;;;;90.20;31.00;;;;;;;-5.33;100.00;99677.69;4161939;28;20373;-69
2022/12/16 00:48:07;;;;;;;88.57;30.57;;;;;;;-5.25;100.00;99685.13;4168149;28;20237;-67
2022/12/16 00:50:34;;;;;;;86.63;29.93;;;;;;;-5.33;100.00;99684.63;4173910;28;20609;-67
2022/12/16 00:53:01;;;;;;;88.43;31.30;;;;;;;-5.34;100.00;99676.00;4176013;28;22122;-66
2022/12/16 00:55:28;;;;;;;84.30;29.30;;;;;;;-5.22;100.00;99685.03;4170756;28;20645;-68
2022/12/16 00:57:54;;;;;;;83.77;30.93;;;;;;;-5.22;100.00;99678.97;4177463;28;20703;-66
2022/12/16 01:00:22;;;;;;;84.60;27.93;;;;;;;-5.25;100.00;99676.50;4194208;28;20725;-66
2022/12/16 01:02:49;;;;;;;83.90;29.33;;;;;;;-5.33;100.00;99676.84;4174862;28;20789;-69
2022/12/16 01:05:19;;;;;;;81.10;28.73;;;;;;;-5.32;100.00;99673.34;4176873;28;20447;-67
2022/12/16 01:07:47;;;;;;;76.77;28.03;;;;;;;-5.24;100.00;99678.22;4182474;28;20890;-68
2022/12/16 01:10:14;;;;;;;83.90;29.97;;;;;;;-5.25;100.00;99679.94;4178104;28;20771;-66
2022/12/16 01:12:40;;;;;;;82.47;28.97;;;;;;;-5.18;100.00;99686.56;4165004;28;20237;-66
2022/12/16 01:15:08;;;;;;;89.93;29.40;;;;;;;-5.12;100.00;99680.28;4180266;28;20409;-64
2022/12/16 01:17:34;;;;;;;83.00;29.93;;;;;;;-5.13;100.00;99688.97;4180579;28;20241;-68
2022/12/16 01:20:01;;;;;;;82.70;28.87;;;;;;;-5.21;100.00;99688.47;4195294;28;20284;-67
2022/12/16 01:22:31;;;;;;;80.03;28.20;;;;;;;-5.15;100.00;99686.44;4178144;28;22449;-66
2022/12/16 01:24:58;;;;;;;82.73;28.67;;;;;;;-5.07;100.00;99688.72;4183536;28;20307;-66
2022/12/16 01:27:26;;;;;;;78.63;27.80;;;;;;;-5.06;100.00;99687.78;4186713;28;20237;-68
2022/12/16 01:29:52;;;;;;;82.80;29.77;;;;;;;-5.11;100.00;99682.81;4182644;28;21186;-66
2022/12/16 01:32:21;;;;;;;85.67;28.37;;;;;;;-5.13;100.00;99683.78;4177967;28;20248;-65
2022/12/16 01:34:51;;;;;;;80.07;28.40;;;;;;;-5.23;100.00;99674.72;4168022;28;20306;-66
2022/12/16 01:37:22;;;;;;;81.63;28.10;;;;;;;-5.06;100.00;99674.00;4179347;28;23184;-69
2022/12/16 01:39:49;;;;;;;75.70;27.57;;;;;;;-5.11;100.00;99667.25;4163821;28;20233;-66
2022/12/16 01:42:18;;;;;;;84.57;28.20;;;;;;;-5.03;100.00;99653.97;4178480;28;20288;-67
2022/12/16 01:44:47;;;;;;;78.30;28.27;;;;;;;-5.12;100.00;99647.41;4186044;28;20376;-68
2022/12/16 01:47:19;;;;;;;86.63;28.73;;;;;;;-5.13;100.00;99648.34;4192707;28;20443;-67
2022/12/16 01:49:50;;;;;;;81.37;28.33;;;;;;;-5.17;100.00;99640.75;4173969;28;24896;-67
2022/12/16 01:52:29;;;;;;;71.13;26.73;;;;;;;-5.28;100.00;99628.22;4190809;28;21862;-67
2022/12/16 01:55:06;;;;;;;78.13;26.90;;;;;;;-5.18;100.00;99623.47;4179199;28;20245;-66
2022/12/16 01:57:36;;;;;;;81.30;28.07;;;;;;;-5.21;100.00;99639.19;4176117;28;20831;-65
2022/12/16 02:00:05;;;;;;;83.13;28.40;;;;;;;-5.41;100.00;99638.28;4178435;28;20402;-65
2022/12/16 02:02:32;;;;;;;82.27;28.53;;;;;;;-5.51;100.00;99632.59;4176420;28;21215;-65
2022/12/16 02:07:52;;;;;;;86.70;28.77;;;;;;;-5.31;100.00;99624.00;4176361;28;20315;-67
2022/12/16 02:10:26;;;;;;;83.13;29.70;;;;;;;-5.42;100.00;99627.97;4164299;28;21297;-66
2022/12/16 02:13:04;;;;;;;85.10;29.03;;;;;;;-5.38;100.00;99621.75;4179925;28;21598;-65
2022/12/16 02:15:41;;;;;;;86.93;30.17;;;;;;;-5.45;100.00;99620.31;4162615;28;20233;-66
2022/12/16 02:18:23;;;;;;;89.43;30.47;;;;;;;-5.45;100.00;99621.16;4175813;28;20233;-68
2022/12/16 02:21:04;;;;;;;86.43;31.23;;;;;;;-5.45;100.00;99617.72;4175624;28;20229;-66
2022/12/16 02:23:51;;;;;;;96.80;30.87;;;;;;;-5.48;100.00;99625.63;4167310;28;20415;-66
2022/12/16 02:26:46;;;;;;;91.53;30.07;;;;;;;-5.52;100.00;99630.09;4177080;28;20237;-66
2022/12/16 02:29:38;;;;;;;85.00;29.23;;;;;;;-5.46;100.00;99623.81;4196244;28;21890;-66
2022/12/16 02:32:21;;;;;;;80.63;30.00;;;;;;;-5.46;100.00;99623.81;4190506;28;20344;-66
2022/12/16 02:34:56;;;;;;;92.33;29.90;;;;;;;-5.54;100.00;99612.00;4190676;28;20315;-67
2022/12/16 02:37:51;;;;;;;82.60;30.07;;;;;;;-5.65;100.00;99609.00;4175677;28;20226;-66
2022/12/16 02:40:26;;;;;;;93.87;30.83;;;;;;;-5.59;100.00;99619.13;4188618;28;21305;-66
2022/12/16 02:42:59;;;;;;;96.23;32.00;;;;;;;-5.67;100.00;99613.41;4174177;28;20267;-66
2022/12/16 02:45:27;;;;;;;91.97;29.50;;;;;;;-5.69;100.00;99606.63;4162675;28;20244;-67
2022/12/16 02:47:54;;;;;;;90.07;29.03;;;;;;;-5.67;100.00;99600.47;4180824;28;22305;-68
2022/12/16 02:50:32;;;;;;;82.17;29.73;;;;;;;-5.56;100.00;99608.63;4178898;28;20329;-65
2022/12/16 02:52:59;;;;;;;91.30;30.37;;;;;;;-5.64;100.00;99605.53;4169861;28;21257;-66
2022/12/16 02:55:55;;;;;;;90.23;29.13;;;;;;;-5.68;100.00;99587.59;4178326;28;20270;-65
2022/12/16 02:58:47;;;;;;;83.30;29.77;;;;;;;-5.76;100.00;99586.16;4188926;28;20785;-66
2022/12/16 03:01:24;;;;;;;79.70;27.37;;;;;;;-5.73;100.00;99587.78;4186147;28;20236;-68
2022/12/16 03:04:00;;;;;;;85.23;30.07;;;;;;;-5.78;100.00;99584.53;4187292;28;20733;-66
2022/12/16 03:06:29;;;;;;;84.97;28.93;;;;;;;-5.80;100.00;99568.22;4175799;28;20240;-67
2022/12/16 03:08:59;;;;;;;90.20;28.63;;;;;;;-5.77;100.00;99570.66;4167567;28;20233;-69
2022/12/16 03:11:27;;;;;;;79.80;27.40;;;;;;;-5.70;100.00;99569.50;4169517;28;20292;-66
2022/12/16 03:13:55;;;;;;;87.53;28.93;;;;;;;-5.72;100.00;99576.50;4169156;28;20522;-65
2022/12/16 03:16:25;;;;;;;86.50;28.60;;;;;;;-5.76;100.00;99570.59;4175386;28;20228;-66
2022/12/16 03:18:54;;;;;;;92.60;28.90;;;;;;;-5.63;100.00;99568.34;4178857;28;20242;-68
2022/12/16 03:21:23;;;;;;;83.40;27.50;;;;;;;-5.78;100.00;99571.59;4166839;28;20237;-67
2022/12/16 03:24:00;;;;;;;84.20;28.00;;;;;;;-5.66;100.00;99565.88;4166711;28;20377;-66
2022/12/16 03:26:33;;;;;;;84.93;28.43;;;;;;;-5.74;100.00;99566.22;4180161;28;20240;-66
2022/12/16 03:29:04;;;;;;;84.37;27.90;;;;;;;-5.69;100.00;99565.16;4195890;28;20508;-65
2022/12/16 03:31:39;;;;;;;83.07;28.40;;;;;;;-5.63;100.00;99576.09;4192304;28;21175;-65
2022/12/16 03:34:32;;;;;;;87.60;30.77;;;;;;;-5.67;100.00;99578.88;4171977;28;20325;-68
2022/12/16 03:37:03;;;;;;;82.60;28.70;;;;;;;-5.79;100.00;99565.53;4187285;28;20288;-66
2022/12/16 03:39:32;;;;;;;81.87;27.43;;;;;;;-5.67;100.00;99559.00;4177844;28;25997;-68
2022/12/16 03:42:00;;;;;;;89.73;28.50;;;;;;;-5.68;100.00;99554.72;4182608;28;20277;-67
2022/12/16 03:44:26;;;;;;;90.13;29.03;;;;;;;-5.72;100.00;99553.16;4167991;28;20241;-67
2022/12/16 03:46:53;;;;;;;83.73;28.47;;;;;;;-5.74;100.00;99545.47;4162114;28;20269;-65
2022/12/16 03:49:21;;;;;;;91.53;29.10;;;;;;;-5.76;100.00;99536.06;4175158;28;20323;-66
2022/12/16 03:51:48;;;;;;;92.60;31.67;;;;;;;-5.83;100.00;99537.22;4175706;28;20328;-66
2022/12/16 03:54:15;;;;;;;95.37;29.57;;;;;;;-5.64;100.00;99525.19;4168715;28;20233;-67
2022/12/16 03:56:41;;;;;;;87.57;28.30;;;;;;;-5.62;100.00;99523.38;4174100;28;20243;-68
2022/12/16 03:59:08;;;;;;;88.13;30.23;;;;;;;-5.58;100.00;99521.50;4173463;28;20442;-65
2022/12/16 04:01:36;;;;;;;88.73;29.47;;;;;;;-5.77;100.00;99518.84;4174685;28;20232;-66
2022/12/16 04:04:03;;;;;;;93.90;29.83;;;;;;;-5.76;100.00;99523.09;4174605;28;24190;-64
2022/12/16 04:06:29;;;;;;;87.87;27.73;;;;;;;-5.64;100.00;99527.78;4176501;28;20334;-66
2022/12/16 04:08:56;;;;;;;93.27;30.53;;;;;;;-5.68;100.00;99522.81;4175206;28;20248;-66
2022/12/16 04:25:34;;;;;;;82.70;28.57;;;;;;;-5.74;100.00;99521.28;4180723;28;20294;-66
2022/12/16 04:28:01;;;;;;;88.93;29.37;;;;;;;-5.78;100.00;99527.53;4174693;28;20442;-67
2022/12/16 04:30:29;;;;;;;89.40;28.23;;;;;;;-5.75;100.00;99525.63;4175423;28;20366;-67
